createdAt,value
2023-03-25T00:00:01.649Z,622.85
2023-03-25T00:01:01.736Z,622.86
2023-03-25T00:02:01.849Z,622.83
2023-03-25T00:03:02.097Z,622.86
2023-03-25T00:04:02.530Z,622.87
2023-03-25T00:05:01.634Z,622.86
2023-03-25T00:06:01.622Z,622.86
2023-03-25T00:07:01.706Z,622.86
2023-03-25T00:08:01.687Z,622.87
2023-03-25T00:09:01.540Z,622.92
2023-03-25T00:10:01.600Z,622.96
2023-03-25T00:11:01.615Z,622.90
2023-03-25T00:12:01.594Z,622.92
2023-03-25T00:13:01.514Z,622.87
2023-03-25T00:14:01.586Z,622.88
2023-03-25T00:15:01.406Z,622.89
2023-03-25T00:16:01.353Z,622.87
2023-03-25T00:17:01.536Z,622.83
2023-03-25T00:18:01.364Z,622.86
2023-03-25T00:19:01.351Z,622.88
2023-03-25T00:20:01.325Z,622.92
2023-03-25T00:21:01.300Z,622.87
2023-03-25T00:22:01.303Z,622.89
2023-03-25T00:23:01.345Z,622.85
2023-03-25T00:24:01.266Z,622.90
2023-03-25T00:25:01.240Z,622.90
2023-03-25T00:26:01.243Z,622.93
2023-03-25T00:27:01.225Z,622.86
2023-03-25T00:28:01.202Z,622.91
2023-03-25T00:29:01.214Z,622.92
2023-03-25T00:30:01.187Z,622.87
2023-03-25T00:31:01.195Z,622.85
2023-03-25T00:32:01.199Z,622.87
2023-03-25T00:33:01.209Z,622.89
2023-03-25T00:34:01.148Z,622.87
2023-03-25T00:35:01.155Z,622.89
2023-03-25T00:36:01.204Z,622.90
2023-03-25T00:37:01.116Z,622.90
2023-03-25T00:38:01.091Z,622.85
2023-03-25T00:39:01.104Z,622.86
2023-03-25T00:40:01.144Z,622.85
2023-03-25T00:41:01.066Z,622.85
2023-03-25T00:42:01.070Z,622.82
2023-03-25T00:43:08.076Z,622.84
2023-03-25T00:44:01.022Z,622.86
2023-03-25T00:45:01.036Z,622.83
2023-03-25T00:46:01.096Z,622.81
2023-03-25T00:47:00.992Z,622.83
2023-03-25T00:48:01.051Z,622.82
2023-03-25T00:49:00.994Z,622.86
2023-03-25T00:50:00.965Z,622.86
2023-03-25T00:51:00.967Z,622.87
2023-03-25T00:52:00.935Z,622.87
2023-03-25T00:53:00.987Z,622.87
2023-03-25T00:54:00.920Z,622.88
2023-03-25T00:55:00.914Z,622.85
2023-03-25T00:56:00.889Z,622.85
2023-03-25T00:57:00.979Z,622.83
2023-03-25T00:58:00.884Z,622.82
2023-03-25T00:59:00.874Z,622.81
2023-03-25T01:00:00.879Z,622.81
2023-03-25T01:01:00.874Z,622.86
2023-03-25T01:02:00.833Z,622.85
2023-03-25T01:03:00.897Z,622.87
2023-03-25T01:04:00.806Z,622.87
2023-03-25T01:05:00.816Z,622.89
2023-03-25T01:06:00.773Z,622.90
2023-03-25T01:07:00.785Z,622.85
2023-03-25T01:08:00.760Z,622.86
2023-03-25T01:09:00.762Z,622.84
2023-03-25T01:10:00.731Z,622.81
2023-03-25T01:11:00.751Z,622.83
2023-03-25T01:12:00.726Z,622.81
2023-03-25T01:13:00.731Z,622.83
2023-03-25T01:14:00.692Z,622.85
2023-03-25T01:15:00.710Z,622.85
2023-03-25T01:16:00.699Z,622.84
2023-03-25T01:17:00.671Z,622.84
2023-03-25T01:18:00.724Z,622.88
2023-03-25T01:19:00.648Z,622.83
2023-03-25T01:20:00.672Z,622.84
2023-03-25T01:21:00.647Z,622.85
2023-03-25T01:22:00.611Z,622.86
2023-03-25T01:23:00.619Z,622.89
2023-03-25T01:24:00.580Z,622.86
2023-03-25T01:25:00.592Z,622.85
2023-03-25T01:26:00.569Z,622.87
2023-03-25T01:27:00.553Z,622.85
2023-03-25T01:28:00.535Z,622.84
2023-03-25T01:29:00.533Z,622.85
2023-03-25T01:30:00.549Z,622.85
2023-03-25T01:31:00.596Z,622.84
2023-03-25T01:32:00.495Z,622.86
2023-03-25T01:33:00.524Z,622.89
2023-03-25T01:34:00.490Z,622.90
2023-03-25T01:35:00.486Z,622.89
2023-03-25T01:36:00.546Z,622.91
2023-03-25T01:37:00.438Z,622.88
2023-03-25T01:38:00.429Z,622.90
2023-03-25T01:39:00.443Z,622.89
2023-03-25T01:40:00.437Z,622.89
2023-03-25T01:41:00.406Z,622.86
2023-03-25T01:42:00.396Z,622.85
2023-03-25T01:43:00.375Z,622.83
2023-03-25T01:44:00.379Z,622.82
2023-03-25T01:45:00.370Z,622.86
2023-03-25T01:46:00.354Z,622.86
2023-03-25T01:47:00.349Z,622.84
2023-03-25T01:48:00.387Z,622.86
2023-03-25T01:49:00.313Z,622.82
2023-03-25T01:50:00.333Z,622.85
2023-03-25T01:51:00.311Z,622.83
2023-03-25T01:52:00.296Z,622.84
2023-03-25T01:53:00.266Z,622.84
2023-03-25T01:54:00.287Z,622.81
2023-03-25T01:55:00.278Z,622.84
2023-03-25T01:56:00.239Z,622.83
2023-03-25T01:57:00.282Z,622.86
2023-03-25T01:58:00.223Z,622.87
2023-03-25T01:59:00.233Z,622.87
2023-03-25T02:00:00.265Z,622.83
2023-03-25T02:01:00.242Z,622.83
2023-03-25T02:02:00.174Z,622.83
2023-03-25T02:03:00.225Z,622.84
2023-03-25T02:04:00.218Z,622.88
2023-03-25T02:05:00.191Z,622.86
2023-03-25T02:06:00.139Z,622.86
2023-03-25T02:07:00.118Z,622.88
2023-03-25T02:08:00.126Z,622.85
2023-03-25T02:09:00.158Z,622.88
2023-03-25T02:10:00.116Z,622.89
2023-03-25T02:11:00.109Z,622.88
2023-03-25T02:12:00.072Z,622.86
2023-03-25T02:13:00.050Z,622.88
2023-03-25T02:14:00.073Z,622.87
2023-03-25T02:15:00.044Z,622.84
2023-03-25T02:16:00.055Z,622.88
2023-03-25T02:17:00.005Z,622.91
2023-03-25T02:18:00.034Z,622.87
2023-03-25T02:18:59.982Z,622.83
2023-03-25T02:19:59.982Z,622.85
2023-03-25T02:20:59.977Z,622.82
2023-03-25T02:21:59.982Z,622.85
2023-03-25T02:22:59.967Z,622.84
2023-03-25T02:23:59.933Z,622.87
2023-03-25T02:24:59.915Z,622.85
2023-03-25T02:25:59.905Z,622.86
2023-03-25T02:26:59.924Z,622.86
2023-03-25T02:27:59.883Z,622.83
2023-03-25T02:28:59.880Z,622.87
2023-03-25T02:29:59.888Z,622.85
2023-03-25T02:30:59.847Z,622.85
2023-03-25T02:31:59.898Z,622.86
2023-03-25T02:32:59.870Z,622.88
2023-03-25T02:33:59.836Z,622.91
2023-03-25T02:34:59.806Z,622.85
2023-03-25T02:35:59.831Z,622.88
2023-03-25T02:36:59.796Z,622.87
2023-03-25T02:37:59.768Z,622.88
2023-03-25T02:38:59.756Z,622.90
2023-03-25T02:39:59.787Z,622.89
2023-03-25T02:40:59.738Z,622.91
2023-03-25T02:41:59.743Z,622.84
2023-03-25T02:42:59.747Z,622.81
2023-03-25T02:44:07.251Z,622.84
2023-03-25T02:44:59.712Z,622.85
2023-03-25T02:45:59.752Z,622.86
2023-03-25T02:46:59.685Z,622.84
2023-03-25T02:47:59.677Z,622.86
2023-03-25T02:48:59.663Z,622.84
2023-03-25T02:49:59.647Z,622.84
2023-03-25T02:50:59.621Z,622.86
2023-03-25T02:51:59.619Z,622.84
2023-03-25T02:52:59.640Z,622.82
2023-03-25T02:53:59.593Z,622.82
2023-03-25T02:54:59.592Z,622.83
2023-03-25T02:55:59.575Z,622.82
2023-03-25T02:56:59.590Z,622.84
2023-03-25T02:57:59.545Z,622.85
2023-03-25T02:58:59.555Z,622.81
2023-03-25T02:59:59.539Z,622.81
2023-03-25T03:00:59.568Z,622.83
2023-03-25T03:01:59.538Z,622.84
2023-03-25T03:02:59.739Z,622.83
2023-03-25T03:03:59.523Z,622.82
2023-03-25T03:04:59.483Z,622.80
2023-03-25T03:05:59.474Z,622.82
2023-03-25T03:06:59.446Z,622.83
2023-03-25T03:07:59.446Z,622.86
2023-03-25T03:08:59.438Z,622.83
2023-03-25T03:09:59.457Z,622.80
2023-03-25T03:10:59.403Z,622.84
2023-03-25T03:11:59.393Z,622.84
2023-03-25T03:12:59.412Z,622.85
2023-03-25T03:13:59.389Z,622.87
2023-03-25T03:14:59.385Z,622.85
2023-03-25T03:15:59.349Z,622.87
2023-03-25T03:16:59.395Z,622.86
2023-03-25T03:17:59.393Z,622.86
2023-03-25T03:18:59.346Z,622.89
2023-03-25T03:19:59.302Z,622.83
2023-03-25T03:20:59.288Z,622.85
2023-03-25T03:21:59.287Z,622.84
2023-03-25T03:22:59.305Z,622.87
2023-03-25T03:23:59.431Z,622.88
2023-03-25T03:24:59.303Z,622.85
2023-03-25T03:25:59.245Z,622.82
2023-03-25T03:26:59.237Z,622.84
2023-03-25T03:27:59.233Z,622.87
2023-03-25T03:28:59.216Z,622.82
2023-03-25T03:29:59.208Z,622.84
2023-03-25T03:30:59.234Z,622.87
2023-03-25T03:32:05.742Z,622.86
2023-03-25T03:32:59.198Z,622.85
2023-03-25T03:33:59.165Z,622.85
2023-03-25T03:34:59.156Z,622.86
2023-03-25T03:35:59.141Z,622.85
2023-03-25T03:36:59.113Z,622.85
2023-03-25T03:37:59.121Z,622.86
2023-03-25T03:38:59.096Z,622.86
2023-03-25T03:39:59.090Z,622.83
2023-03-25T03:40:59.072Z,622.84
2023-03-25T03:41:59.065Z,622.82
2023-03-25T03:42:59.065Z,622.81
2023-03-25T03:43:59.052Z,622.85
2023-03-25T03:44:59.045Z,622.86
2023-03-25T03:45:59.060Z,622.82
2023-03-25T03:46:59.049Z,622.85
2023-03-25T03:47:59.075Z,622.86
2023-03-25T03:48:59.016Z,622.83
2023-03-25T03:49:58.972Z,622.85
2023-03-25T03:50:58.981Z,622.85
2023-03-25T03:51:58.968Z,622.85
2023-03-25T03:52:58.938Z,622.86
2023-03-25T03:53:58.963Z,622.88
2023-03-25T03:54:58.934Z,622.89
2023-03-25T03:55:58.911Z,622.84
2023-03-25T03:56:58.928Z,622.88
2023-03-25T03:57:58.891Z,622.82
2023-03-25T03:58:58.889Z,622.81
2023-03-25T03:59:58.887Z,622.87
2023-03-25T04:00:58.854Z,622.90
2023-03-25T04:01:58.891Z,622.84
2023-03-25T04:02:59.036Z,622.85
2023-03-25T04:03:58.834Z,622.83
2023-03-25T04:04:58.848Z,622.82
2023-03-25T04:05:58.799Z,622.82
2023-03-25T04:06:58.786Z,622.82
2023-03-25T04:07:58.805Z,622.81
2023-03-25T04:08:58.811Z,622.80
2023-03-25T04:09:58.782Z,622.84
2023-03-25T04:10:58.738Z,622.86
2023-03-25T04:11:58.739Z,622.83
2023-03-25T04:12:58.728Z,622.81
2023-03-25T04:13:58.725Z,622.81
2023-03-25T04:14:58.709Z,622.83
2023-03-25T04:15:58.715Z,622.83
2023-03-25T04:16:58.682Z,622.83
2023-03-25T04:17:58.716Z,622.82
2023-03-25T04:18:58.677Z,622.82
2023-03-25T04:19:58.658Z,622.84
2023-03-25T04:20:58.643Z,622.86
2023-03-25T04:21:58.621Z,622.83
2023-03-25T04:22:58.614Z,622.82
2023-03-25T04:23:58.610Z,622.79
2023-03-25T04:24:58.595Z,622.80
2023-03-25T04:25:58.675Z,622.83
2023-03-25T04:26:58.562Z,622.83
2023-03-25T04:27:58.568Z,622.82
2023-03-25T04:29:00.457Z,622.82
2023-03-25T04:29:58.547Z,622.84
2023-03-25T04:30:58.533Z,622.82
2023-03-25T04:31:58.511Z,622.80
2023-03-25T04:32:58.549Z,622.85
2023-03-25T04:33:58.496Z,622.86
2023-03-25T04:34:58.504Z,622.83
2023-03-25T04:35:58.510Z,622.82
2023-03-25T04:36:58.653Z,622.82
2023-03-25T04:37:58.441Z,622.84
2023-03-25T04:38:58.434Z,622.83
2023-03-25T04:39:58.435Z,622.84
2023-03-25T04:40:58.493Z,622.81
2023-03-25T04:41:58.416Z,622.80
2023-03-25T04:42:58.389Z,622.81
2023-03-25T04:43:58.399Z,622.82
2023-03-25T04:45:05.891Z,622.86
2023-03-25T04:45:58.365Z,622.87
2023-03-25T04:46:58.353Z,622.84
2023-03-25T04:47:58.360Z,622.85
2023-03-25T04:48:58.319Z,622.82
2023-03-25T04:49:58.334Z,622.81
2023-03-25T04:50:58.333Z,622.84
2023-03-25T04:51:58.303Z,622.83
2023-03-25T04:52:58.958Z,622.86
2023-03-25T04:53:58.279Z,622.84
2023-03-25T04:54:58.277Z,622.80
2023-03-25T04:55:58.246Z,622.84
2023-03-25T04:56:58.298Z,622.82
2023-03-25T04:57:58.238Z,622.81
2023-03-25T04:58:58.211Z,622.81
2023-03-25T04:59:58.208Z,622.84
2023-03-25T05:00:58.207Z,622.83
2023-03-25T05:01:58.181Z,622.86
2023-03-25T05:02:58.244Z,622.89
2023-03-25T05:03:58.189Z,622.84
2023-03-25T05:04:58.142Z,622.87
2023-03-25T05:05:58.144Z,622.81
2023-03-25T05:06:58.154Z,622.81
2023-03-25T05:07:58.378Z,622.84
2023-03-25T05:08:58.116Z,622.84
2023-03-25T05:09:58.092Z,622.82
2023-03-25T05:10:58.083Z,622.84
2023-03-25T05:11:58.084Z,622.83
2023-03-25T05:12:58.066Z,622.83
2023-03-25T05:13:58.063Z,622.79
2023-03-25T05:14:58.044Z,622.85
2023-03-25T05:15:58.035Z,622.82
2023-03-25T05:16:58.006Z,622.84
2023-03-25T05:17:58.055Z,622.83
2023-03-25T05:18:58.452Z,622.82
2023-03-25T05:19:57.994Z,622.82
2023-03-25T05:20:57.960Z,622.83
2023-03-25T05:21:57.953Z,622.81
2023-03-25T05:22:57.967Z,622.82
2023-03-25T05:23:57.941Z,622.83
2023-03-25T05:24:57.931Z,622.84
2023-03-25T05:25:57.914Z,622.80
2023-03-25T05:26:57.915Z,622.81
2023-03-25T05:27:57.886Z,622.85
2023-03-25T05:28:57.872Z,622.85
2023-03-25T05:29:57.867Z,622.84
2023-03-25T05:30:57.882Z,622.89
2023-03-25T05:31:57.929Z,622.83
2023-03-25T05:32:57.875Z,622.81
2023-03-25T05:33:57.849Z,622.81
2023-03-25T05:34:57.806Z,622.83
2023-03-25T05:35:57.823Z,622.84
2023-03-25T05:36:57.792Z,622.81
2023-03-25T05:37:57.797Z,622.83
2023-03-25T05:38:57.821Z,622.85
2023-03-25T05:39:57.760Z,622.86
2023-03-25T05:40:57.766Z,622.86
2023-03-25T05:41:57.745Z,622.85
2023-03-25T05:42:57.732Z,622.87
2023-03-25T05:43:57.717Z,622.84
2023-03-25T05:44:57.694Z,622.82
2023-03-25T05:45:57.696Z,622.82
2023-03-25T05:46:59.307Z,622.83
2023-03-25T05:47:57.722Z,622.81
2023-03-25T05:48:57.674Z,622.82
2023-03-25T05:49:57.644Z,622.83
2023-03-25T05:50:57.646Z,622.85
2023-03-25T05:51:57.632Z,622.81
2023-03-25T05:52:57.701Z,622.84
2023-03-25T05:53:57.631Z,622.84
2023-03-25T05:54:57.612Z,622.89
2023-03-25T05:55:57.614Z,622.85
2023-03-25T05:56:57.614Z,622.86
2023-03-25T05:57:57.556Z,622.92
2023-03-25T05:58:57.711Z,622.88
2023-03-25T05:59:57.533Z,622.83
2023-03-25T06:00:57.529Z,622.81
2023-03-25T06:01:57.562Z,622.82
2023-03-25T06:02:57.614Z,622.85
2023-03-25T06:03:57.506Z,622.85
2023-03-25T06:04:57.514Z,622.83
2023-03-25T06:05:57.480Z,622.85
2023-03-25T06:06:57.463Z,622.85
2023-03-25T06:07:57.446Z,622.87
2023-03-25T06:08:57.444Z,622.88
2023-03-25T06:09:57.456Z,622.92
2023-03-25T06:10:57.443Z,622.85
2023-03-25T06:11:57.408Z,622.85
2023-03-25T06:12:57.410Z,622.86
2023-03-25T06:13:57.382Z,622.84
2023-03-25T06:14:57.369Z,622.82
2023-03-25T06:15:57.461Z,622.83
2023-03-25T06:16:57.351Z,622.85
2023-03-25T06:17:57.488Z,622.85
2023-03-25T06:18:57.339Z,622.83
2023-03-25T06:19:57.335Z,622.81
2023-03-25T06:20:57.304Z,622.86
2023-03-25T06:21:57.986Z,622.84
2023-03-25T06:22:57.298Z,622.83
2023-03-25T06:23:57.267Z,622.84
2023-03-25T06:24:57.262Z,622.87
2023-03-25T06:25:57.257Z,622.86
2023-03-25T06:26:57.263Z,622.90
2023-03-25T06:27:57.231Z,622.94
2023-03-25T06:28:57.218Z,622.88
2023-03-25T06:29:57.219Z,622.83
2023-03-25T06:30:57.273Z,622.84
2023-03-25T06:31:57.212Z,622.78
2023-03-25T06:32:57.198Z,622.81
2023-03-25T06:33:57.175Z,622.83
2023-03-25T06:34:57.167Z,622.82
2023-03-25T06:35:57.216Z,622.83
2023-03-25T06:36:57.133Z,622.86
2023-03-25T06:37:57.124Z,622.84
2023-03-25T06:38:57.118Z,622.80
2023-03-25T06:39:57.094Z,622.81
2023-03-25T06:40:57.090Z,622.83
2023-03-25T06:41:57.071Z,622.81
2023-03-25T06:42:57.153Z,622.81
2023-03-25T06:43:57.062Z,622.81
2023-03-25T06:44:57.040Z,622.79
2023-03-25T06:46:04.573Z,622.88
2023-03-25T06:46:57.017Z,622.83
2023-03-25T06:47:57.067Z,622.83
2023-03-25T06:48:56.998Z,622.84
2023-03-25T06:49:56.982Z,622.81
2023-03-25T06:50:56.974Z,622.81
2023-03-25T06:51:56.962Z,622.83
2023-03-25T06:52:56.968Z,622.84
2023-03-25T06:53:56.973Z,622.85
2023-03-25T06:54:56.935Z,622.83
2023-03-25T06:55:56.943Z,622.83
2023-03-25T06:56:56.941Z,622.86
2023-03-25T06:57:56.900Z,622.85
2023-03-25T06:58:56.914Z,622.85
2023-03-25T06:59:56.897Z,622.83
2023-03-25T07:00:56.866Z,622.82
2023-03-25T07:01:56.885Z,622.82
2023-03-25T07:02:56.857Z,622.80
2023-03-25T07:03:56.851Z,622.83
2023-03-25T07:04:56.878Z,622.84
2023-03-25T07:05:56.806Z,622.83
2023-03-25T07:06:57.821Z,622.86
2023-03-25T07:07:56.795Z,622.83
2023-03-25T07:08:56.775Z,622.82
2023-03-25T07:09:56.780Z,622.81
2023-03-25T07:10:56.758Z,622.81
2023-03-25T07:11:56.769Z,622.82
2023-03-25T07:12:56.733Z,622.82
2023-03-25T07:13:56.724Z,622.83
2023-03-25T07:14:56.740Z,622.81
2023-03-25T07:15:56.752Z,622.81
2023-03-25T07:16:56.721Z,622.80
2023-03-25T07:17:56.696Z,622.83
2023-03-25T07:18:56.686Z,622.83
2023-03-25T07:19:56.664Z,622.84
2023-03-25T07:20:56.644Z,622.86
2023-03-25T07:21:56.646Z,622.84
2023-03-25T07:22:56.641Z,622.86
2023-03-25T07:23:56.645Z,622.84
2023-03-25T07:24:56.634Z,622.85
2023-03-25T07:25:56.596Z,622.84
2023-03-25T07:26:56.577Z,622.84
2023-03-25T07:27:56.567Z,622.85
2023-03-25T07:28:56.573Z,622.84
2023-03-25T07:29:56.540Z,622.83
2023-03-25T07:30:56.556Z,622.80
2023-03-25T07:31:56.527Z,622.85
2023-03-25T07:32:56.572Z,622.85
2023-03-25T07:33:56.534Z,622.84
2023-03-25T07:34:56.532Z,622.84
2023-03-25T07:35:56.533Z,622.81
2023-03-25T07:36:56.486Z,622.83
2023-03-25T07:37:56.456Z,622.83
2023-03-25T07:38:57.246Z,622.83
2023-03-25T07:39:56.438Z,622.86
2023-03-25T07:40:56.429Z,622.86
2023-03-25T07:41:56.414Z,622.82
2023-03-25T07:42:56.412Z,622.84
2023-03-25T07:43:56.433Z,622.87
2023-03-25T07:44:56.389Z,622.83
2023-03-25T07:45:56.440Z,622.86
2023-03-25T07:46:56.405Z,622.85
2023-03-25T07:47:56.380Z,622.82
2023-03-25T07:48:56.343Z,622.81
2023-03-25T07:49:56.357Z,622.84
2023-03-25T07:50:56.526Z,622.85
2023-03-25T07:51:56.322Z,622.85
2023-03-25T07:52:56.292Z,622.85
2023-03-25T07:53:56.293Z,622.86
2023-03-25T07:54:56.289Z,622.85
2023-03-25T07:55:56.266Z,622.83
2023-03-25T07:56:56.290Z,622.84
2023-03-25T07:57:56.234Z,622.87
2023-03-25T07:58:56.225Z,622.91
2023-03-25T07:59:56.225Z,622.85
2023-03-25T08:00:56.214Z,622.82
2023-03-25T08:01:56.302Z,622.82
2023-03-25T08:02:56.274Z,622.81
2023-03-25T08:03:56.206Z,622.85
2023-03-25T08:04:56.180Z,622.86
2023-03-25T08:05:56.169Z,622.87
2023-03-25T08:06:56.146Z,622.86
2023-03-25T08:07:56.131Z,622.86
2023-03-25T08:08:56.117Z,622.82
2023-03-25T08:09:56.101Z,622.82
2023-03-25T08:10:56.115Z,622.82
2023-03-25T08:11:56.091Z,622.83
2023-03-25T08:12:56.072Z,622.85
2023-03-25T08:13:56.053Z,622.85
2023-03-25T08:14:56.090Z,622.84
2023-03-25T08:15:56.032Z,622.83
2023-03-25T08:16:56.111Z,622.84
2023-03-25T08:17:56.023Z,622.81
2023-03-25T08:18:56.016Z,622.83
2023-03-25T08:19:55.986Z,622.83
2023-03-25T08:20:55.992Z,622.85
2023-03-25T08:21:55.964Z,622.84
2023-03-25T08:22:55.955Z,622.84
2023-03-25T08:23:55.950Z,622.86
2023-03-25T08:24:55.937Z,622.86
2023-03-25T08:25:55.950Z,622.82
2023-03-25T08:26:55.928Z,622.84
2023-03-25T08:27:55.906Z,622.84
2023-03-25T08:28:55.897Z,622.83
2023-03-25T08:29:55.906Z,622.84
2023-03-25T08:30:55.875Z,622.85
2023-03-25T08:31:55.895Z,622.89
2023-03-25T08:32:55.929Z,622.91
2023-03-25T08:33:55.845Z,622.83
2023-03-25T08:34:55.859Z,622.81
2023-03-25T08:35:55.838Z,622.81
2023-03-25T08:36:55.813Z,622.83
2023-03-25T08:37:55.845Z,622.87
2023-03-25T08:38:55.804Z,622.86
2023-03-25T08:39:55.776Z,622.86
2023-03-25T08:40:55.825Z,622.85
2023-03-25T08:41:55.823Z,622.86
2023-03-25T08:42:55.734Z,622.85
2023-03-25T08:43:55.794Z,622.86
2023-03-25T08:44:55.711Z,622.89
2023-03-25T08:45:55.775Z,622.86
2023-03-25T08:47:03.232Z,622.86
2023-03-25T08:47:55.707Z,622.86
2023-03-25T08:48:55.672Z,622.84
2023-03-25T08:49:55.652Z,622.81
2023-03-25T08:50:55.751Z,622.83
2023-03-25T08:51:55.636Z,622.84
2023-03-25T08:52:55.628Z,622.83
2023-03-25T08:53:55.617Z,622.83
2023-03-25T08:54:55.620Z,622.82
2023-03-25T08:55:55.597Z,622.82
2023-03-25T08:56:55.646Z,622.83
2023-03-25T08:57:55.568Z,622.86
2023-03-25T08:58:55.584Z,622.85
2023-03-25T08:59:55.548Z,622.84
2023-03-25T09:00:55.553Z,622.85
2023-03-25T09:01:56.344Z,622.87
2023-03-25T09:02:55.584Z,622.89
2023-03-25T09:03:55.504Z,622.84
2023-03-25T09:04:55.509Z,622.85
2023-03-25T09:05:55.516Z,622.84
2023-03-25T09:07:11.073Z,622.85
2023-03-25T09:07:56.469Z,622.83
2023-03-25T09:08:55.455Z,622.85
2023-03-25T09:09:55.451Z,622.86
2023-03-25T09:10:55.442Z,622.83
2023-03-25T09:11:55.415Z,622.85
2023-03-25T09:12:55.424Z,622.85
2023-03-25T09:13:55.390Z,622.87
2023-03-25T09:14:55.412Z,622.84
2023-03-25T09:15:55.476Z,622.83
2023-03-25T09:16:55.363Z,622.83
2023-03-25T09:17:55.378Z,622.82
2023-03-25T09:18:55.368Z,622.84
2023-03-25T09:19:57.004Z,622.85
2023-03-25T09:20:55.328Z,622.86
2023-03-25T09:21:55.324Z,622.91
2023-03-25T09:22:55.328Z,622.88
2023-03-25T09:23:55.309Z,622.93
2023-03-25T09:24:55.308Z,622.91
2023-03-25T09:25:55.274Z,622.94
2023-03-25T09:26:55.248Z,622.94
2023-03-25T09:27:55.253Z,622.88
2023-03-25T09:28:55.226Z,622.89
2023-03-25T09:29:55.224Z,622.87
2023-03-25T09:30:55.322Z,622.87
2023-03-25T09:31:55.202Z,622.87
2023-03-25T09:32:55.244Z,622.84
2023-03-25T09:33:55.183Z,622.84
2023-03-25T09:34:55.173Z,622.86
2023-03-25T09:35:55.183Z,622.87
2023-03-25T09:36:55.140Z,622.86
2023-03-25T09:37:55.122Z,622.86
2023-03-25T09:38:55.139Z,622.84
2023-03-25T09:39:55.102Z,622.84
2023-03-25T09:40:55.104Z,622.87
2023-03-25T09:41:55.081Z,622.88
2023-03-25T09:42:56.026Z,622.90
2023-03-25T09:43:55.063Z,622.87
2023-03-25T09:44:55.060Z,622.87
2023-03-25T09:45:55.034Z,622.86
2023-03-25T09:46:55.076Z,622.88
2023-03-25T09:47:55.128Z,622.88
2023-03-25T09:48:55.022Z,622.93
2023-03-25T09:49:55.004Z,622.86
2023-03-25T09:50:54.993Z,622.87
2023-03-25T09:51:54.968Z,622.92
2023-03-25T09:52:54.976Z,622.93
2023-03-25T09:53:54.961Z,622.91
2023-03-25T09:54:55.093Z,622.87
2023-03-25T09:55:54.945Z,622.96
2023-03-25T09:56:54.939Z,622.95
2023-03-25T09:57:54.928Z,622.87
2023-03-25T09:58:54.912Z,622.88
2023-03-25T09:59:54.887Z,622.89
2023-03-25T10:00:54.922Z,622.88
2023-03-25T10:01:54.881Z,622.88
2023-03-25T10:02:54.904Z,622.88
2023-03-25T10:03:54.838Z,622.85
2023-03-25T10:04:54.827Z,622.82
2023-03-25T10:05:54.839Z,622.88
2023-03-25T10:06:54.805Z,622.91
2023-03-25T10:07:55.050Z,622.91
2023-03-25T10:08:54.779Z,622.86
2023-03-25T10:09:54.805Z,622.87
2023-03-25T10:10:54.780Z,622.86
2023-03-25T10:11:54.752Z,622.88
2023-03-25T10:12:54.745Z,622.85
2023-03-25T10:13:54.742Z,622.87
2023-03-25T10:14:54.714Z,622.87
2023-03-25T10:15:54.718Z,622.89
2023-03-25T10:16:54.692Z,622.86
2023-03-25T10:17:54.709Z,622.88
2023-03-25T10:18:54.677Z,622.91
2023-03-25T10:19:54.685Z,622.92
2023-03-25T10:20:55.682Z,622.95
2023-03-25T10:21:54.639Z,622.91
2023-03-25T10:22:54.636Z,622.92
2023-03-25T10:23:54.619Z,622.91
2023-03-25T10:24:54.615Z,622.90
2023-03-25T10:25:54.602Z,622.87
2023-03-25T10:26:54.597Z,622.89
2023-03-25T10:27:54.571Z,622.98
2023-03-25T10:28:54.584Z,622.96
2023-03-25T10:29:54.565Z,622.98
2023-03-25T10:30:54.539Z,622.91
2023-03-25T10:31:54.658Z,622.90
2023-03-25T10:32:54.575Z,622.86
2023-03-25T10:33:54.511Z,622.86
2023-03-25T10:34:54.524Z,622.86
2023-03-25T10:35:54.744Z,622.86
2023-03-25T10:36:54.465Z,622.87
2023-03-25T10:37:54.456Z,622.87
2023-03-25T10:38:54.478Z,622.84
2023-03-25T10:39:54.468Z,622.82
2023-03-25T10:40:54.422Z,622.86
2023-03-25T10:41:54.422Z,622.86
2023-03-25T10:42:54.500Z,622.83
2023-03-25T10:43:54.419Z,622.85
2023-03-25T10:44:54.418Z,622.87
2023-03-25T10:45:54.874Z,622.85
2023-03-25T10:46:54.425Z,622.85
2023-03-25T10:48:02.217Z,622.89
2023-03-25T10:48:54.330Z,622.86
2023-03-25T10:49:54.321Z,622.85
2023-03-25T10:50:54.312Z,622.84
2023-03-25T10:51:54.321Z,622.84
2023-03-25T10:52:54.288Z,622.88
2023-03-25T10:53:54.281Z,622.88
2023-03-25T10:54:54.269Z,622.88
2023-03-25T10:55:54.262Z,622.86
2023-03-25T10:56:54.278Z,622.85
2023-03-25T10:57:54.233Z,622.86
2023-03-25T10:58:54.251Z,622.88
2023-03-25T10:59:54.217Z,622.89
2023-03-25T11:00:54.251Z,622.86
2023-03-25T11:01:54.233Z,622.90
2023-03-25T11:02:54.285Z,622.90
2023-03-25T11:03:54.164Z,622.90
2023-03-25T11:04:54.190Z,622.89
2023-03-25T11:05:54.145Z,622.88
2023-03-25T11:06:54.144Z,622.87
2023-03-25T11:07:54.131Z,622.85
2023-03-25T11:08:54.115Z,622.87
2023-03-25T11:09:54.094Z,622.89
2023-03-25T11:10:54.126Z,622.92
2023-03-25T11:11:54.073Z,622.86
2023-03-25T11:12:54.073Z,622.86
2023-03-25T11:13:54.058Z,622.87
2023-03-25T11:14:54.076Z,622.87
2023-03-25T11:15:54.389Z,622.85
2023-03-25T11:16:54.044Z,622.83
2023-03-25T11:17:54.054Z,622.85
2023-03-25T11:18:53.996Z,622.92
2023-03-25T11:19:53.980Z,622.87
2023-03-25T11:20:53.981Z,622.90
2023-03-25T11:21:53.958Z,622.92
2023-03-25T11:22:53.955Z,622.89
2023-03-25T11:23:53.951Z,622.89
2023-03-25T11:24:53.923Z,622.87
2023-03-25T11:25:53.923Z,622.89
2023-03-25T11:26:53.905Z,622.91
2023-03-25T11:27:53.890Z,622.89
2023-03-25T11:28:53.896Z,622.90
2023-03-25T11:29:53.872Z,622.86
2023-03-25T11:30:53.896Z,622.87
2023-03-25T11:31:53.852Z,622.85
2023-03-25T11:32:53.868Z,622.85
2023-03-25T11:33:53.842Z,622.85
2023-03-25T11:34:53.864Z,622.86
2023-03-25T11:35:54.057Z,622.88
2023-03-25T11:36:53.793Z,622.92
2023-03-25T11:37:53.783Z,622.95
2023-03-25T11:38:53.778Z,623.01
2023-03-25T11:39:53.760Z,622.93
2023-03-25T11:40:53.757Z,622.88
2023-03-25T11:41:53.757Z,622.86
2023-03-25T11:42:53.745Z,622.87
2023-03-25T11:43:53.718Z,622.85
2023-03-25T11:44:53.733Z,622.87
2023-03-25T11:45:53.990Z,622.89
2023-03-25T11:46:53.718Z,622.93
2023-03-25T11:47:53.751Z,622.94
2023-03-25T11:48:53.673Z,622.91
2023-03-25T11:49:53.647Z,622.88
2023-03-25T11:50:53.631Z,622.93
2023-03-25T11:51:53.643Z,622.92
2023-03-25T11:52:53.638Z,622.98
2023-03-25T11:53:53.603Z,622.89
2023-03-25T11:54:53.595Z,622.97
2023-03-25T11:55:53.644Z,622.87
2023-03-25T11:56:53.587Z,622.87
2023-03-25T11:57:53.592Z,622.88
2023-03-25T11:58:53.560Z,622.89
2023-03-25T11:59:53.536Z,622.89
2023-03-25T12:00:53.528Z,622.90
2023-03-25T12:01:53.527Z,622.90
2023-03-25T12:02:53.647Z,622.93
2023-03-25T12:03:53.633Z,622.93
2023-03-25T12:04:53.485Z,622.97
2023-03-25T12:05:53.524Z,622.90
2023-03-25T12:06:53.455Z,622.91
2023-03-25T12:07:53.447Z,622.87
2023-03-25T12:08:53.500Z,622.89
2023-03-25T12:09:53.425Z,622.88
2023-03-25T12:10:53.412Z,622.90
2023-03-25T12:11:53.427Z,622.91
2023-03-25T12:12:53.443Z,622.90
2023-03-25T12:13:53.387Z,622.88
2023-03-25T12:14:53.390Z,622.88
2023-03-25T12:15:53.588Z,622.97
2023-03-25T12:16:53.369Z,622.93
2023-03-25T12:17:53.388Z,622.91
2023-03-25T12:18:53.346Z,622.86
2023-03-25T12:19:53.325Z,622.90
2023-03-25T12:20:53.343Z,622.89
2023-03-25T12:21:53.296Z,622.88
2023-03-25T12:22:53.286Z,622.87
2023-03-25T12:23:53.274Z,622.87
2023-03-25T12:24:53.259Z,622.90
2023-03-25T12:25:53.285Z,622.96
2023-03-25T12:26:53.251Z,623.01
2023-03-25T12:27:53.610Z,622.99